createdAt,value
2023-05-16T04:13:00.933Z,12.05
2023-05-16T04:16:09.093Z,8.32
2023-05-16T04:19:18.828Z,6.65
2023-05-16T04:22:26.083Z,6.37
2023-05-16T04:25:37.302Z,5.80
2023-05-16T04:28:48.682Z,5.82
2023-05-16T04:31:55.959Z,5.20
2023-05-16T04:35:04.395Z,4.90
2023-05-16T04:38:13.875Z,5.72
2023-05-16T04:41:21.777Z,5.25
2023-05-16T04:44:32.772Z,4.60
2023-05-16T04:47:41.385Z,4.70
2023-05-16T04:50:48.277Z,4.12
2023-05-16T04:53:55.554Z,3.87
2023-05-16T04:56:59.762Z,7.65
2023-05-16T05:00:09.482Z,4.32
2023-05-16T05:03:15.042Z,3.90
2023-05-16T05:06:20.859Z,4.72
2023-05-16T05:09:28.428Z,4.12
2023-05-16T05:15:44.249Z,5.40
2023-05-16T05:18:48.666Z,5.50
2023-05-16T05:21:52.007Z,3.80
2023-05-16T05:24:55.977Z,3.85
2023-05-16T05:28:00.065Z,3.95
2023-05-16T05:31:08.299Z,3.90
2023-05-16T05:34:15.345Z,4.25
2023-05-16T05:37:21.481Z,4.10
2023-05-16T05:40:29.562Z,6.03
2023-05-16T05:43:35.663Z,3.90
2023-05-16T05:46:39.663Z,5.28
2023-05-16T05:49:47.321Z,5.07
2023-05-16T05:52:52.134Z,7.12
2023-05-16T05:55:58.272Z,5.35
2023-05-16T05:59:04.645Z,4.70
2023-05-16T06:02:12.519Z,5.87
2023-05-16T06:05:18.939Z,4.37
2023-05-16T06:08:26.197Z,5.93
2023-05-16T06:11:32.007Z,5.22
2023-05-16T06:14:37.312Z,6.57
2023-05-16T06:17:42.304Z,5.40
2023-05-16T06:20:47.865Z,4.03
2023-05-16T06:23:53.588Z,7.75
2023-05-16T06:26:59.446Z,4.18
2023-05-16T06:30:04.511Z,4.32
2023-05-16T06:33:10.362Z,10.20
2023-05-16T06:36:13.688Z,4.32
2023-05-16T06:39:17.700Z,5.43
2023-05-16T06:42:22.776Z,6.55
2023-05-16T06:45:27.124Z,6.00
2023-05-16T06:48:31.847Z,3.62
2023-05-16T06:51:38.617Z,4.78
2023-05-16T06:54:42.908Z,5.00
2023-05-16T06:57:48.829Z,4.75
2023-05-16T07:00:54.385Z,8.13
2023-05-16T07:03:58.410Z,3.55
2023-05-16T07:07:02.483Z,3.55
2023-05-16T07:10:08.203Z,5.80
2023-05-16T07:13:12.242Z,7.15
2023-05-16T07:16:16.876Z,5.45
2023-05-16T07:19:24.004Z,4.20
2023-05-16T07:22:29.559Z,4.30
2023-05-16T07:25:37.050Z,4.93
2023-05-16T07:28:41.781Z,6.85
2023-05-16T07:31:45.731Z,6.30
2023-05-16T07:34:49.925Z,6.37
2023-05-16T07:37:53.636Z,7.90
2023-05-16T07:40:57.899Z,6.87
2023-05-16T07:44:05.775Z,9.23
2023-05-16T07:47:10.088Z,11.20
2023-05-16T07:50:14.845Z,9.70
2023-05-16T07:53:19.351Z,11.80
2023-05-16T07:56:23.859Z,9.55
2023-05-16T07:59:27.826Z,9.88
2023-05-16T08:02:35.378Z,11.40
2023-05-16T08:05:40.429Z,10.00
2023-05-16T08:08:45.281Z,11.75
2023-05-16T08:11:50.429Z,10.07
2023-05-16T08:14:56.426Z,11.55
2023-05-16T08:18:01.535Z,13.25
2023-05-16T08:21:04.669Z,8.68
2023-05-16T08:24:11.439Z,13.85
2023-05-16T08:27:15.628Z,9.52
2023-05-16T08:30:19.758Z,10.48
2023-05-16T08:33:25.109Z,10.05
2023-05-16T08:36:32.352Z,9.15
2023-05-16T08:39:39.766Z,7.60
2023-05-16T08:42:46.122Z,9.75
2023-05-16T08:45:49.932Z,12.10
2023-05-16T08:48:54.621Z,10.00
2023-05-16T08:52:01.426Z,9.07
2023-05-16T08:55:11.085Z,8.73
2023-05-16T08:58:16.919Z,9.13
2023-05-16T09:01:20.856Z,8.40
2023-05-16T09:04:27.757Z,10.25
2023-05-16T09:07:34.280Z,8.20
2023-05-16T09:10:38.194Z,8.90
2023-05-16T09:13:42.887Z,10.43
2023-05-16T09:16:46.531Z,11.93
2023-05-16T09:19:53.108Z,10.65
2023-05-16T09:22:59.586Z,12.93
2023-05-16T09:26:06.080Z,12.80
2023-05-16T09:29:13.278Z,11.15
2023-05-16T09:32:18.139Z,10.07
2023-05-16T09:35:39.884Z,10.43
2023-05-16T09:38:50.398Z,10.40
2023-05-16T09:41:54.298Z,11.80
2023-05-16T09:45:03.954Z,16.25
2023-05-16T09:48:11.089Z,16.87
2023-05-16T09:51:22.405Z,10.88
2023-05-16T09:54:35.173Z,12.70
2023-05-16T09:57:40.443Z,13.18
2023-05-16T10:00:43.360Z,11.05
2023-05-16T10:03:47.697Z,14.50
2023-05-16T10:06:55.310Z,13.27
2023-05-16T10:10:06.737Z,11.15
2023-05-16T10:13:13.502Z,12.45
2023-05-16T10:16:22.677Z,12.43
2023-05-16T10:19:26.848Z,13.68
2023-05-16T10:22:36.937Z,10.80
2023-05-16T10:25:43.739Z,10.63
2023-05-16T10:28:49.620Z,12.23
2023-05-16T10:31:55.127Z,10.65
2023-05-16T10:35:04.406Z,13.43
2023-05-16T10:38:12.656Z,12.45
2023-05-16T10:41:21.197Z,10.20
2023-05-16T10:44:26.198Z,10.57
2023-05-16T10:47:34.704Z,11.63
2023-05-16T10:50:46.330Z,11.48
2023-05-16T10:56:58.584Z,10.63
2023-05-16T11:00:07.980Z,11.45
2023-05-16T11:03:29.009Z,11.82
2023-05-16T11:06:45.564Z,12.32
2023-05-16T11:10:10.828Z,14.02
2023-05-16T11:13:20.299Z,16.70
2023-05-16T11:16:27.429Z,17.70
2023-05-16T11:19:39.996Z,21.30
2023-05-16T11:22:43.655Z,23.62
2023-05-16T11:25:51.898Z,23.77
2023-05-16T11:28:57.733Z,22.25
2023-05-16T11:32:05.831Z,19.87
2023-05-16T11:35:14.236Z,17.05
2023-05-16T11:38:18.014Z,14.65
2023-05-16T11:41:22.379Z,14.52
2023-05-16T11:44:26.916Z,15.18
2023-05-16T11:47:32.426Z,11.98
2023-05-16T11:50:37.311Z,15.77
2023-05-16T11:53:41.871Z,11.18
2023-05-16T11:56:47.710Z,10.65
2023-05-16T11:59:52.794Z,17.05
2023-05-16T12:03:06.068Z,10.80
2023-05-16T12:06:11.454Z,11.30
2023-05-16T12:09:18.481Z,11.98
2023-05-16T12:12:23.097Z,9.30
2023-05-16T12:15:29.008Z,11.05
2023-05-16T12:18:34.669Z,9.90
2023-05-16T12:21:39.400Z,10.70
2023-05-16T12:24:46.166Z,10.05
2023-05-16T12:27:50.836Z,10.27
2023-05-16T12:30:54.692Z,13.40
2023-05-16T12:33:59.904Z,12.18
2023-05-16T12:37:08.795Z,9.32
2023-05-16T12:40:14.270Z,10.18
2023-05-16T12:43:23.911Z,10.40
2023-05-16T12:46:31.686Z,10.85
2023-05-16T12:49:36.500Z,10.35
2023-05-16T12:52:48.592Z,10.73
2023-05-16T12:55:52.166Z,13.40
2023-05-16T12:58:56.128Z,9.75
2023-05-16T13:02:02.592Z,10.90
2023-05-16T13:05:10.750Z,12.05
2023-05-16T13:08:15.786Z,12.63
2023-05-16T13:11:22.002Z,11.27
2023-05-16T13:14:28.819Z,10.25
2023-05-16T13:17:34.269Z,11.63
2023-05-16T13:20:41.198Z,12.25
2023-05-16T13:23:46.501Z,11.35
2023-05-16T13:26:52.700Z,10.60
2023-05-16T13:29:57.896Z,8.43
2023-05-16T13:33:02.286Z,9.63
2023-05-16T13:36:10.825Z,10.38
2023-05-16T13:39:18.879Z,16.20
2023-05-16T13:42:25.362Z,11.80
2023-05-16T13:45:33.006Z,10.07
2023-05-16T13:48:37.501Z,8.85
2023-05-16T13:51:45.854Z,11.27
2023-05-16T13:54:49.601Z,8.98
2023-05-16T13:57:55.144Z,13.88
2023-05-16T14:00:59.006Z,9.15
2023-05-16T14:04:04.017Z,7.87
2023-05-16T14:07:10.656Z,11.02
2023-05-16T14:10:16.371Z,9.02
2023-05-16T14:13:22.764Z,10.77
2023-05-16T14:16:30.111Z,10.15
2023-05-16T14:19:36.848Z,12.40
2023-05-16T14:22:44.605Z,11.00
2023-05-16T14:25:50.881Z,10.60
2023-05-16T14:28:59.032Z,9.43
2023-05-16T14:32:06.000Z,12.07
2023-05-16T14:35:11.976Z,9.45
2023-05-16T14:38:20.823Z,12.88
2023-05-16T14:41:27.570Z,9.13
2023-05-16T14:44:36.674Z,10.38
2023-05-16T14:47:45.132Z,11.18
2023-05-16T14:50:52.290Z,10.07
2023-05-16T14:53:59.907Z,13.07
2023-05-16T14:57:06.795Z,11.32
2023-05-16T15:00:13.597Z,14.13
2023-05-16T15:03:18.559Z,10.30
2023-05-16T15:06:27.679Z,14.32
2023-05-16T15:09:33.763Z,17.37
2023-05-16T15:12:41.860Z,10.98
2023-05-16T15:15:46.339Z,10.05
2023-05-16T15:18:51.634Z,11.20
2023-05-16T15:21:57.760Z,10.63
2023-05-16T15:25:02.730Z,12.13
2023-05-16T15:28:08.101Z,12.90
